createdAt,value
2018-11-02T00:01:42.666Z,8.70
2018-11-02T00:04:18.198Z,8.50
2018-11-02T00:06:53.533Z,8.60
2018-11-02T00:09:29.883Z,8.60
2018-11-02T00:12:04.876Z,8.70
2018-11-02T00:14:40.452Z,8.60
2018-11-02T00:17:15.426Z,8.60
2018-11-02T00:19:50.236Z,8.30
2018-11-02T00:22:25.261Z,8.30
2018-11-02T00:25:00.086Z,8.00
2018-11-02T00:27:35.128Z,8.20
2018-11-02T00:30:10.160Z,8.10
2018-11-02T00:32:45.185Z,8.20
2018-11-02T00:35:20.033Z,8.30
2018-11-02T00:37:54.786Z,8.30
2018-11-02T00:40:29.499Z,8.40
2018-11-02T00:43:04.401Z,8.40
2018-11-02T00:45:40.014Z,8.30
2018-11-02T00:48:15.150Z,8.30
2018-11-02T00:50:49.827Z,8.30
2018-11-02T00:53:24.891Z,8.30
2018-11-02T00:55:59.638Z,8.30
2018-11-02T00:58:35.258Z,8.10
2018-11-02T01:01:10.190Z,8.10
2018-11-02T01:03:44.873Z,8.10
2018-11-02T01:06:19.719Z,8.00
2018-11-02T01:08:54.598Z,7.80
2018-11-02T01:11:29.307Z,7.90
2018-11-02T01:14:04.648Z,7.90
2018-11-02T01:16:39.502Z,7.80
2018-11-02T01:19:14.435Z,7.80
2018-11-02T01:21:49.139Z,7.70
2018-11-02T01:24:24.058Z,7.60
2018-11-02T01:26:58.755Z,7.50
2018-11-02T01:29:33.894Z,7.50
2018-11-02T01:32:08.937Z,7.40
2018-11-02T01:34:43.882Z,7.30
2018-11-02T01:37:18.698Z,7.30
2018-11-02T01:39:53.621Z,7.10
2018-11-02T01:42:29.161Z,7.20
2018-11-02T01:45:04.676Z,7.20
2018-11-02T01:47:39.539Z,7.20
2018-11-02T01:50:14.961Z,7.10
2018-11-02T01:52:49.948Z,7.10
2018-11-02T01:55:25.062Z,7.10
2018-11-02T01:57:59.766Z,7.10
2018-11-02T02:00:34.570Z,6.80
2018-11-02T02:03:09.571Z,6.80
2018-11-02T02:05:44.323Z,6.70
2018-11-02T02:08:19.125Z,6.80
2018-11-02T02:10:53.942Z,6.70
2018-11-02T02:13:28.811Z,6.80
2018-11-02T02:16:03.826Z,6.90
2018-11-02T02:18:38.517Z,6.90
2018-11-02T02:21:13.554Z,6.80
2018-11-02T02:23:48.294Z,6.80
2018-11-02T02:26:23.071Z,6.70
2018-11-02T02:28:57.945Z,6.70
2018-11-02T02:31:32.939Z,6.60
2018-11-02T02:34:07.744Z,6.60
2018-11-02T02:36:43.131Z,6.60
2018-11-02T02:39:17.788Z,6.50
2018-11-02T02:41:52.730Z,6.60
2018-11-02T02:44:27.743Z,6.60
2018-11-02T02:47:02.571Z,6.70
2018-11-02T02:49:37.602Z,6.70
2018-11-02T02:52:12.513Z,6.60
2018-11-02T02:54:47.429Z,6.40
2018-11-02T02:57:22.130Z,6.50
2018-11-02T02:59:57.654Z,6.50
2018-11-02T03:02:32.683Z,6.40
2018-11-02T03:05:07.813Z,6.40
2018-11-02T03:07:43.019Z,6.40
2018-11-02T03:10:17.976Z,6.40
2018-11-02T03:12:52.917Z,6.30
2018-11-02T03:15:27.790Z,6.30
2018-11-02T03:18:02.689Z,6.40
2018-11-02T03:20:38.153Z,6.30
2018-11-02T03:23:13.315Z,6.00
2018-11-02T03:25:48.054Z,6.00
2018-11-02T03:28:23.154Z,6.20
2018-11-02T03:30:58.727Z,6.20
2018-11-02T03:33:33.803Z,6.40
2018-11-02T03:36:08.687Z,6.40
2018-11-02T03:38:43.503Z,6.30
2018-11-02T03:41:18.450Z,6.40
2018-11-02T03:43:53.371Z,6.50
2018-11-02T03:46:28.994Z,6.50
2018-11-02T03:49:03.839Z,6.30
2018-11-02T03:51:38.828Z,6.50
2018-11-02T03:54:14.477Z,6.60
2018-11-02T03:56:49.318Z,6.70
2018-11-02T03:59:24.437Z,6.70
2018-11-02T04:01:59.507Z,6.70
2018-11-02T04:04:34.428Z,6.70
2018-11-02T04:07:09.387Z,6.80
2018-11-02T04:09:44.451Z,6.80
2018-11-02T04:12:19.394Z,6.80
2018-11-02T04:14:54.478Z,6.90
2018-11-02T04:17:29.935Z,6.90
2018-11-02T04:20:06.318Z,6.80
2018-11-02T04:22:41.386Z,6.70
2018-11-02T04:25:16.425Z,6.80
2018-11-02T04:27:51.236Z,6.80
2018-11-02T04:30:25.849Z,6.90
2018-11-02T04:33:00.812Z,7.00
2018-11-02T04:35:35.546Z,7.00
2018-11-02T04:38:10.482Z,7.00
2018-11-02T04:40:45.803Z,6.80
2018-11-02T04:43:21.221Z,6.90
2018-11-02T04:45:55.853Z,7.00
2018-11-02T04:48:30.893Z,6.90
2018-11-02T04:51:06.496Z,7.00
2018-11-02T04:53:41.231Z,7.10
2018-11-02T04:56:16.199Z,7.10
2018-11-02T04:58:51.326Z,7.10
2018-11-02T05:01:26.988Z,7.00
2018-11-02T05:04:02.124Z,7.00
2018-11-02T05:06:36.786Z,7.10
2018-11-02T05:09:11.674Z,7.10
2018-11-02T05:11:46.602Z,7.20
2018-11-02T05:14:21.515Z,7.20
2018-11-02T05:16:56.212Z,7.10
2018-11-02T05:19:31.152Z,7.20
2018-11-02T05:22:05.948Z,7.20
2018-11-02T05:24:41.378Z,7.20
2018-11-02T05:27:16.225Z,7.20
2018-11-02T05:29:51.245Z,7.20
2018-11-02T05:32:27.217Z,7.30
2018-11-02T05:35:02.043Z,7.30
2018-11-02T05:37:37.395Z,7.30
2018-11-02T05:40:12.815Z,7.30
2018-11-02T05:42:47.979Z,7.30
2018-11-02T05:45:24.185Z,7.30
2018-11-02T05:47:59.665Z,7.30
2018-11-02T05:50:34.512Z,7.30
2018-11-02T05:53:09.217Z,7.30
2018-11-02T05:55:43.947Z,7.20
2018-11-02T05:58:18.949Z,6.90
2018-11-02T06:00:53.804Z,7.10
2018-11-02T06:03:28.905Z,7.20
2018-11-02T06:06:04.193Z,7.20
2018-11-02T06:08:39.421Z,7.20
2018-11-02T06:11:14.357Z,7.30
2018-11-02T06:13:49.090Z,7.30
2018-11-02T06:16:24.083Z,7.30
2018-11-02T06:18:58.773Z,7.40
2018-11-02T06:21:33.680Z,7.30
2018-11-02T06:24:09.047Z,7.30
2018-11-02T06:26:44.355Z,7.30
2018-11-02T06:29:18.996Z,7.30
2018-11-02T06:31:54.436Z,7.20
2018-11-02T06:34:32.139Z,7.30
2018-11-02T06:37:07.143Z,7.20
2018-11-02T06:39:42.080Z,7.20
2018-11-02T06:42:17.063Z,7.30
2018-11-02T06:44:52.786Z,7.40
2018-11-02T06:47:27.839Z,7.50
2018-11-02T06:50:03.733Z,7.50
2018-11-02T06:52:39.910Z,7.60
2018-11-02T06:55:15.842Z,7.70
2018-11-02T06:57:51.406Z,7.70
2018-11-02T07:00:26.727Z,7.70
2018-11-02T07:03:01.592Z,7.80
2018-11-02T07:05:38.217Z,7.50
2018-11-02T07:08:13.463Z,7.60
2018-11-02T07:10:48.953Z,7.70
2018-11-02T07:13:23.846Z,7.70
2018-11-02T07:15:58.724Z,7.80
2018-11-02T07:18:33.544Z,7.90
2018-11-02T07:21:08.549Z,7.90
2018-11-02T07:23:45.258Z,8.00
2018-11-02T07:26:20.251Z,8.10
2018-11-02T07:28:54.967Z,8.10
2018-11-02T07:31:30.084Z,8.20
2018-11-02T07:34:06.004Z,8.10
2018-11-02T07:36:41.221Z,8.10
2018-11-02T07:39:30.404Z,8.30
2018-11-02T07:42:05.328Z,8.40
2018-11-02T07:44:42.262Z,8.60
2018-11-02T07:47:17.038Z,9.40
2018-11-02T07:49:52.839Z,10.40
2018-11-02T07:52:28.009Z,11.60
2018-11-02T07:55:03.518Z,12.20
2018-11-02T07:57:38.921Z,12.40
2018-11-02T08:00:15.336Z,12.50
2018-11-02T08:02:50.355Z,12.40
2018-11-02T08:05:25.283Z,11.90
2018-11-02T08:08:00.064Z,11.50
2018-11-02T08:10:34.957Z,11.30
2018-11-02T08:13:09.752Z,11.30
2018-11-02T08:15:44.552Z,11.00
2018-11-02T08:18:19.446Z,10.90
2018-11-02T08:20:54.283Z,10.90
2018-11-02T08:23:29.229Z,10.70
2018-11-02T08:26:04.191Z,10.70
2018-11-02T08:28:39.166Z,10.70
2018-11-02T08:31:14.700Z,10.70
2018-11-02T08:33:50.056Z,10.70
2018-11-02T08:36:25.472Z,10.70
2018-11-02T08:39:01.646Z,10.60
2018-11-02T08:41:36.309Z,10.60
2018-11-02T08:44:11.630Z,10.70
2018-11-02T08:46:46.474Z,10.60
2018-11-02T08:49:22.558Z,10.70
2018-11-02T08:51:57.414Z,10.80
2018-11-02T08:54:32.526Z,10.80
2018-11-02T08:57:07.623Z,10.90
2018-11-02T08:59:42.562Z,10.80
2018-11-02T09:02:17.459Z,10.80
2018-11-02T09:04:52.984Z,10.80
2018-11-02T09:07:28.079Z,10.80
2018-11-02T09:10:03.099Z,10.60
2018-11-02T09:12:38.370Z,10.70
2018-11-02T09:15:13.343Z,10.80
2018-11-02T09:17:48.163Z,10.80
2018-11-02T09:20:22.957Z,11.00
2018-11-02T09:22:57.879Z,11.00
2018-11-02T09:25:32.983Z,11.00
2018-11-02T09:28:07.955Z,11.10
2018-11-02T09:30:43.450Z,11.10
2018-11-02T09:33:18.495Z,11.10
2018-11-02T09:35:53.198Z,11.00
2018-11-02T09:38:28.142Z,11.10
2018-11-02T09:41:03.365Z,11.00
2018-11-02T09:43:38.906Z,10.90
2018-11-02T09:46:14.048Z,10.90
2018-11-02T09:48:49.186Z,10.60
2018-11-02T09:51:26.889Z,10.60
2018-11-02T09:54:02.221Z,10.40
2018-11-02T09:56:37.315Z,10.60
2018-11-02T09:59:13.179Z,10.70
2018-11-02T10:01:48.245Z,10.80
2018-11-02T10:04:23.303Z,11.00
2018-11-02T10:06:58.923Z,11.30
2018-11-02T10:09:34.337Z,11.40
2018-11-02T10:12:09.446Z,11.30
2018-11-02T10:14:44.309Z,11.20
2018-11-02T10:17:19.422Z,11.40
2018-11-02T10:19:54.466Z,11.80
2018-11-02T10:22:29.565Z,12.60
2018-11-02T10:25:04.963Z,13.10
2018-11-02T10:27:41.983Z,13.50
2018-11-02T10:30:16.892Z,14.30
2018-11-02T10:32:54.809Z,15.30
2018-11-02T10:35:30.394Z,17.20
2018-11-02T10:38:06.039Z,16.70
2018-11-02T10:40:44.006Z,17.00
2018-11-02T10:43:20.369Z,16.30
2018-11-02T10:45:58.742Z,15.90
2018-11-02T10:48:34.702Z,16.10
2018-11-02T10:51:09.998Z,16.90
2018-11-02T10:53:45.506Z,18.90
2018-11-02T10:56:21.137Z,19.90
2018-11-02T10:58:56.774Z,19.40
2018-11-02T11:01:38.242Z,18.70
2018-11-02T11:04:13.705Z,18.10
2018-11-02T11:06:49.694Z,18.30
2018-11-02T11:09:26.121Z,18.40
2018-11-02T11:12:01.645Z,18.40
2018-11-02T11:14:37.345Z,17.60
2018-11-02T11:17:13.077Z,17.00
2018-11-02T11:19:48.364Z,15.80
2018-11-02T11:22:24.020Z,15.90
2018-11-02T11:24:59.639Z,15.40
2018-11-02T11:27:35.318Z,14.80
2018-11-02T11:30:19.378Z,14.50
2018-11-02T11:32:54.572Z,14.40
2018-11-02T11:35:29.667Z,14.20
2018-11-02T11:38:04.982Z,13.90
2018-11-02T11:40:40.105Z,14.20
2018-11-02T11:43:15.256Z,13.90
2018-11-02T11:45:50.511Z,13.80
2018-11-02T11:48:26.029Z,13.80
2018-11-02T11:51:01.299Z,13.90
2018-11-02T11:53:36.999Z,13.80
2018-11-02T11:56:12.152Z,13.80
2018-11-02T11:58:47.281Z,14.00
2018-11-02T12:01:23.410Z,13.40
2018-11-02T12:03:59.154Z,13.10
2018-11-02T12:06:34.432Z,13.10
2018-11-02T12:09:10.052Z,13.10
2018-11-02T12:11:45.199Z,13.30
2018-11-02T12:14:20.209Z,13.50
2018-11-02T12:16:55.644Z,13.40
2018-11-02T12:19:30.679Z,13.10
2018-11-02T12:22:06.150Z,12.80
2018-11-02T12:24:41.246Z,12.80
2018-11-02T12:27:16.291Z,12.90
2018-11-02T12:29:51.425Z,13.00
2018-11-02T12:32:26.290Z,12.80
2018-11-02T12:35:01.607Z,12.90
2018-11-02T12:37:36.929Z,12.70
2018-11-02T12:40:14.702Z,12.80
2018-11-02T12:42:51.369Z,13.10
2018-11-02T12:45:27.056Z,12.80
2018-11-02T12:48:02.329Z,13.00
2018-11-02T12:50:37.610Z,13.20
2018-11-02T12:53:12.555Z,12.90
2018-11-02T12:55:47.568Z,13.10
2018-11-02T12:58:22.663Z,13.10
2018-11-02T13:00:57.635Z,12.90
2018-11-02T13:03:32.515Z,13.10
2018-11-02T13:06:08.433Z,12.90
2018-11-02T13:08:43.713Z,13.20
2018-11-02T13:11:18.530Z,13.10
2018-11-02T13:13:53.629Z,13.00
2018-11-02T13:16:29.175Z,13.10
2018-11-02T13:19:04.536Z,12.90
2018-11-02T13:21:39.527Z,13.00
2018-11-02T13:24:14.537Z,12.90
2018-11-02T13:26:49.706Z,12.80
2018-11-02T13:29:24.577Z,12.90
2018-11-02T13:31:59.445Z,12.90
2018-11-02T13:34:35.148Z,12.80
2018-11-02T13:37:10.194Z,12.80
2018-11-02T13:39:45.222Z,12.70
2018-11-02T13:42:20.308Z,12.70
2018-11-02T13:44:55.187Z,12.40
2018-11-02T13:47:30.594Z,12.50
2018-11-02T13:50:13.370Z,12.70
2018-11-02T13:52:49.092Z,12.70
2018-11-02T13:55:24.012Z,12.40
2018-11-02T13:57:59.316Z,12.30
2018-11-02T14:00:34.351Z,12.30
2018-11-02T14:03:09.158Z,12.30
2018-11-02T14:05:45.061Z,12.40
2018-11-02T14:08:20.033Z,12.40
2018-11-02T14:10:55.093Z,12.40
2018-11-02T14:13:30.090Z,12.40
2018-11-02T14:16:05.145Z,12.20
2018-11-02T14:18:40.142Z,12.40
2018-11-02T14:21:15.244Z,12.50
2018-11-02T14:23:50.273Z,12.50
2018-11-02T14:26:25.333Z,12.50
2018-11-02T14:29:00.369Z,12.50
2018-11-02T14:31:35.273Z,12.50
2018-11-02T14:34:10.242Z,12.40
2018-11-02T14:36:45.461Z,12.50
2018-11-02T14:39:20.717Z,12.50
2018-11-02T14:41:55.786Z,12.50
2018-11-02T14:44:30.987Z,12.50
2018-11-02T14:47:06.631Z,12.40
2018-11-02T14:49:41.816Z,12.40
2018-11-02T14:52:17.544Z,12.30
2018-11-02T14:54:52.822Z,12.30
2018-11-02T14:57:27.525Z,12.30
2018-11-02T15:00:02.663Z,12.30
2018-11-02T15:02:37.673Z,12.30
2018-11-02T15:05:13.434Z,12.20
2018-11-02T15:07:48.940Z,12.30
2018-11-02T15:10:23.926Z,12.20
2018-11-02T15:12:59.416Z,12.10
2018-11-02T15:15:34.507Z,12.20
2018-11-02T15:18:10.154Z,12.10
2018-11-02T15:20:45.047Z,12.20
2018-11-02T15:23:20.124Z,12.10
2018-11-02T15:25:55.456Z,12.10
2018-11-02T15:28:30.222Z,12.10
2018-11-02T15:31:05.990Z,12.10
2018-11-02T15:33:41.050Z,12.00
2018-11-02T15:36:16.070Z,12.00
2018-11-02T15:38:51.870Z,12.00
2018-11-02T15:41:26.726Z,12.00
2018-11-02T15:44:01.552Z,11.90
2018-11-02T15:46:36.555Z,11.90
2018-11-02T15:49:11.722Z,11.80
2018-11-02T15:51:47.202Z,11.70
2018-11-02T15:54:22.190Z,11.70
2018-11-02T15:56:57.541Z,11.70
2018-11-02T15:59:32.482Z,11.70
2018-11-02T16:02:08.534Z,11.70
2018-11-02T16:04:43.527Z,11.70
2018-11-02T16:07:18.752Z,11.60
2018-11-02T16:09:53.541Z,11.60
2018-11-02T16:12:28.399Z,11.60
2018-11-02T16:15:03.832Z,11.60
2018-11-02T16:17:39.101Z,11.50
2018-11-02T16:20:15.028Z,11.50
2018-11-02T16:22:49.892Z,11.50
2018-11-02T16:25:24.793Z,11.40
2018-11-02T16:28:00.229Z,11.40
2018-11-02T16:30:35.100Z,11.40
2018-11-02T16:33:10.027Z,11.30
2018-11-02T16:35:44.947Z,11.30
2018-11-02T16:38:19.802Z,11.30
2018-11-02T16:40:55.411Z,11.30
2018-11-02T16:43:30.383Z,11.20
2018-11-02T16:46:05.845Z,11.10
2018-11-02T16:48:40.550Z,11.10
2018-11-02T16:51:16.196Z,11.10
2018-11-02T16:53:51.023Z,11.10
2018-11-02T16:56:26.020Z,11.10
2018-11-02T16:59:01.200Z,11.00
2018-11-02T17:01:36.214Z,11.10
2018-11-02T17:04:12.051Z,11.10
2018-11-02T17:06:46.943Z,11.10
2018-11-02T17:09:21.964Z,11.10
2018-11-02T17:11:56.992Z,11.10
2018-11-02T17:14:31.754Z,11.10
2018-11-02T17:17:06.660Z,11.10
2018-11-02T17:19:42.202Z,11.00
2018-11-02T17:22:17.450Z,10.90
2018-11-02T17:24:52.541Z,10.90
2018-11-02T17:27:27.625Z,10.90
2018-11-02T17:30:02.863Z,10.90
2018-11-02T17:32:38.024Z,10.90
2018-11-02T17:35:12.951Z,10.80
2018-11-02T17:37:48.090Z,10.80
2018-11-02T17:40:23.063Z,10.80
2018-11-02T17:42:57.905Z,10.80
2018-11-02T17:45:32.918Z,10.70
2018-11-02T17:48:07.928Z,10.70
2018-11-02T17:50:42.980Z,10.70
2018-11-02T17:53:17.718Z,10.70
2018-11-02T17:55:52.805Z,10.70
2018-11-02T17:58:27.928Z,10.70
2018-11-02T18:01:03.248Z,10.70
2018-11-02T18:03:38.430Z,10.70
2018-11-02T18:06:13.366Z,10.70
2018-11-02T18:08:48.175Z,10.70
2018-11-02T18:11:23.269Z,10.70
2018-11-02T18:13:58.317Z,10.50
2018-11-02T18:16:33.094Z,10.50
2018-11-02T18:19:08.285Z,10.50
2018-11-02T18:21:43.210Z,10.50
2018-11-02T18:24:18.190Z,10.40
2018-11-02T18:26:53.658Z,10.20
2018-11-02T18:29:28.357Z,10.30
2018-11-02T18:32:03.294Z,10.40
2018-11-02T18:34:38.361Z,10.50
2018-11-02T18:37:13.457Z,10.50
2018-11-02T18:39:48.736Z,10.60
2018-11-02T18:42:23.770Z,10.50
2018-11-02T18:44:58.859Z,10.60
2018-11-02T18:47:39.222Z,10.50
2018-11-02T18:50:15.785Z,10.50
2018-11-02T18:52:51.232Z,10.40
2018-11-02T18:55:26.959Z,10.50
2018-11-02T18:58:02.231Z,10.40
2018-11-02T19:00:37.182Z,10.40
2018-11-02T19:03:11.961Z,10.30
2018-11-02T19:05:47.011Z,10.40
2018-11-02T19:08:22.622Z,10.30
2018-11-02T19:10:57.817Z,10.40
2018-11-02T19:13:32.919Z,10.40
2018-11-02T19:16:08.808Z,10.40
2018-11-02T19:18:43.497Z,10.40
2018-11-02T19:21:18.508Z,10.40
2018-11-02T19:23:53.573Z,10.30
2018-11-02T19:26:28.684Z,10.40
2018-11-02T19:29:03.598Z,10.30
2018-11-02T19:31:38.358Z,10.30
2018-11-02T19:34:13.912Z,10.30
2018-11-02T19:36:48.904Z,10.40
2018-11-02T19:39:23.933Z,10.40
2018-11-02T19:41:58.795Z,10.40
2018-11-02T19:44:34.083Z,10.40
2018-11-02T19:47:08.782Z,10.30
2018-11-02T19:49:43.863Z,10.30
2018-11-02T19:52:18.722Z,10.30
2018-11-02T19:54:53.694Z,10.30
2018-11-02T19:57:28.719Z,10.30
2018-11-02T20:00:04.030Z,10.20
2018-11-02T20:02:39.678Z,10.20
2018-11-02T20:05:16.539Z,10.20
2018-11-02T20:07:51.749Z,10.20
2018-11-02T20:10:26.750Z,10.20
2018-11-02T20:13:01.725Z,10.20
2018-11-02T20:15:36.738Z,10.20
2018-11-02T20:18:11.650Z,10.20
2018-11-02T20:20:46.662Z,10.20
2018-11-02T20:23:22.318Z,10.20
2018-11-02T20:25:57.442Z,10.10
2018-11-02T20:28:32.304Z,10.10
2018-11-02T20:31:07.384Z,10.10
2018-11-02T20:33:42.257Z,10.00
2018-11-02T20:36:17.493Z,10.00
2018-11-02T20:38:52.772Z,10.00
2018-11-02T20:41:27.842Z,10.00
2018-11-02T20:44:02.653Z,10.00
2018-11-02T20:46:37.694Z,10.00
2018-11-02T20:49:13.104Z,10.00
2018-11-02T20:51:48.071Z,9.90
2018-11-02T20:54:23.601Z,9.90
2018-11-02T20:56:59.059Z,10.00
2018-11-02T20:59:33.997Z,9.90
2018-11-02T21:02:09.030Z,9.80
2018-11-02T21:04:44.081Z,9.90
2018-11-02T21:07:18.963Z,9.90
2018-11-02T21:09:53.964Z,9.90
2018-11-02T21:12:28.967Z,9.90
2018-11-02T21:15:03.922Z,9.80
2018-11-02T21:17:39.378Z,9.80
2018-11-02T21:20:16.109Z,9.80
2018-11-02T21:22:51.166Z,9.80
2018-11-02T21:25:26.499Z,9.80
2018-11-02T21:28:01.395Z,9.80
2018-11-02T21:30:36.458Z,9.80
2018-11-02T21:33:11.236Z,9.80
2018-11-02T21:35:46.073Z,9.80
2018-11-02T21:38:20.936Z,9.70
2018-11-02T21:40:55.742Z,9.70
2018-11-02T21:43:30.746Z,9.70
2018-11-02T21:46:06.138Z,9.70
2018-11-02T21:48:41.142Z,9.70
2018-11-02T21:51:16.586Z,9.70
2018-11-02T21:53:52.265Z,9.70
2018-11-02T21:56:27.267Z,9.60
2018-11-02T21:59:02.304Z,9.60
2018-11-02T22:01:37.068Z,9.50
2018-11-02T22:04:12.072Z,9.40
2018-11-02T22:06:47.070Z,9.50
2018-11-02T22:09:21.966Z,9.50
2018-11-02T22:11:56.971Z,9.50
2018-11-02T22:14:31.952Z,9.50
2018-11-02T22:17:06.953Z,9.50
2018-11-02T22:19:41.983Z,9.50
2018-11-02T22:22:16.951Z,9.50
2018-11-02T22:24:52.185Z,9.50
2018-11-02T22:27:28.751Z,9.40
2018-11-02T22:30:03.949Z,9.40
2018-11-02T22:32:39.234Z,9.50
2018-11-02T22:35:15.078Z,9.40
2018-11-02T22:37:49.723Z,9.50
2018-11-02T22:40:24.665Z,9.40
2018-11-02T22:42:59.669Z,9.40
2018-11-02T22:45:34.604Z,9.40
2018-11-02T22:48:14.764Z,9.40
2018-11-02T22:50:49.795Z,9.50
2018-11-02T22:53:25.526Z,9.50
2018-11-02T22:56:01.165Z,9.50
2018-11-02T22:58:36.005Z,9.50
2018-11-02T23:01:16.311Z,9.30
2018-11-02T23:03:51.372Z,9.40
2018-11-02T23:06:26.504Z,9.40
2018-11-02T23:09:01.574Z,9.40
2018-11-02T23:11:37.291Z,9.40
2018-11-02T23:14:12.525Z,9.30
2018-11-02T23:16:47.577Z,9.20
2018-11-02T23:19:22.871Z,9.30
2018-11-02T23:21:57.796Z,9.30
2018-11-02T23:24:32.813Z,9.30
2018-11-02T23:27:07.542Z,9.30
2018-11-02T23:29:42.511Z,9.30
2018-11-02T23:32:17.641Z,9.30
2018-11-02T23:34:52.600Z,9.20
2018-11-02T23:37:27.528Z,9.20
2018-11-02T23:40:02.618Z,9.20
2018-11-02T23:42:37.575Z,9.30
2018-11-02T23:45:12.889Z,9.20
2018-11-02T23:47:53.035Z,9.20
2018-11-02T23:50:28.212Z,9.20
2018-11-02T23:53:03.034Z,9.10
2018-11-02T23:55:38.644Z,9.20
2018-11-02T23:58:13.707Z,9.20
